sensor_id;sensor_type;location;lat;lon;timestamp;P1;durP1;ratioP1;P2;durP2;ratioP2
51852;SDS011;37894;53.172;6.598;2024-02-14T00:02:26;14.77;;;8.95;;
51852;SDS011;37894;53.172;6.598;2024-02-14T00:04:52;15.18;;;9.38;;
51852;SDS011;37894;53.172;6.598;2024-02-14T00:07:18;17.67;;;9.70;;
51852;SDS011;37894;53.172;6.598;2024-02-14T00:09:47;17.67;;;10.57;;
51852;SDS011;37894;53.172;6.598;2024-02-14T00:12:13;18.95;;;9.90;;
51852;SDS011;37894;53.172;6.598;2024-02-14T00:14:39;15.98;;;10.05;;
51852;SDS011;37894;53.172;6.598;2024-02-14T00:17:05;18.98;;;10.52;;
51852;SDS011;37894;53.172;6.598;2024-02-14T00:19:32;17.42;;;10.55;;
51852;SDS011;37894;53.172;6.598;2024-02-14T00:21:58;20.88;;;10.85;;
51852;SDS011;37894;53.172;6.598;2024-02-14T00:24:23;18.70;;;10.93;;
51852;SDS011;37894;53.172;6.598;2024-02-14T00:26:51;18.45;;;11.80;;
51852;SDS011;37894;53.172;6.598;2024-02-14T00:29:18;20.67;;;11.43;;
51852;SDS011;37894;53.172;6.598;2024-02-14T00:31:44;17.98;;;10.85;;
51852;SDS011;37894;53.172;6.598;2024-02-14T00:34:09;19.23;;;11.63;;
51852;SDS011;37894;53.172;6.598;2024-02-14T00:36:36;22.88;;;13.88;;
51852;SDS011;37894;53.172;6.598;2024-02-14T00:39:02;24.23;;;11.80;;
51852;SDS011;37894;53.172;6.598;2024-02-14T00:41:28;20.75;;;12.70;;
51852;SDS011;37894;53.172;6.598;2024-02-14T00:43:57;20.52;;;12.95;;
51852;SDS011;37894;53.172;6.598;2024-02-14T00:46:23;22.80;;;13.10;;
51852;SDS011;37894;53.172;6.598;2024-02-14T00:48:49;24.60;;;12.88;;
51852;SDS011;37894;53.172;6.598;2024-02-14T00:51:15;24.98;;;12.02;;
51852;SDS011;37894;53.172;6.598;2024-02-14T00:53:41;23.15;;;12.95;;
51852;SDS011;37894;53.172;6.598;2024-02-14T00:56:07;19.73;;;12.88;;
51852;SDS011;37894;53.172;6.598;2024-02-14T00:58:33;26.40;;;14.13;;
51852;SDS011;37894;53.172;6.598;2024-02-14T01:00:59;24.67;;;13.02;;
51852;SDS011;37894;53.172;6.598;2024-02-14T01:03:25;20.85;;;12.85;;
51852;SDS011;37894;53.172;6.598;2024-02-14T01:05:51;21.58;;;13.48;;
51852;SDS011;37894;53.172;6.598;2024-02-14T01:08:17;21.27;;;12.02;;
51852;SDS011;37894;53.172;6.598;2024-02-14T01:10:42;21.00;;;13.15;;
51852;SDS011;37894;53.172;6.598;2024-02-14T01:13:08;20.42;;;12.60;;
51852;SDS011;37894;53.172;6.598;2024-02-14T01:15:34;24.95;;;12.73;;
51852;SDS011;37894;53.172;6.598;2024-02-14T01:18:00;21.15;;;13.77;;
51852;SDS011;37894;53.172;6.598;2024-02-14T01:20:26;20.23;;;11.93;;
51852;SDS011;37894;53.172;6.598;2024-02-14T01:22:52;22.35;;;12.73;;
51852;SDS011;37894;53.172;6.598;2024-02-14T01:25:17;19.23;;;12.50;;
51852;SDS011;37894;53.172;6.598;2024-02-14T01:27:43;17.45;;;12.10;;
51852;SDS011;37894;53.172;6.598;2024-02-14T01:30:10;18.40;;;12.30;;
51852;SDS011;37894;53.172;6.598;2024-02-14T01:32:36;19.73;;;12.48;;
51852;SDS011;37894;53.172;6.598;2024-02-14T01:35:02;21.27;;;12.55;;
51852;SDS011;37894;53.172;6.598;2024-02-14T01:37:29;20.55;;;12.43;;
51852;SDS011;37894;53.172;6.598;2024-02-14T01:39:55;20.38;;;12.27;;
51852;SDS011;37894;53.172;6.598;2024-02-14T01:42:21;20.50;;;12.15;;
51852;SDS011;37894;53.172;6.598;2024-02-14T01:44:47;20.13;;;12.40;;
51852;SDS011;37894;53.172;6.598;2024-02-14T01:47:13;18.25;;;11.40;;
51852;SDS011;37894;53.172;6.598;2024-02-14T01:49:39;18.10;;;11.52;;
51852;SDS011;37894;53.172;6.598;2024-02-14T01:52:05;16.30;;;11.20;;
51852;SDS011;37894;53.172;6.598;2024-02-14T01:54:34;17.25;;;10.48;;
51852;SDS011;37894;53.172;6.598;2024-02-14T01:57:00;14.75;;;9.50;;
51852;SDS011;37894;53.172;6.598;2024-02-14T01:59:26;17.38;;;10.75;;
51852;SDS011;37894;53.172;6.598;2024-02-14T02:01:53;19.85;;;10.73;;
51852;SDS011;37894;53.172;6.598;2024-02-14T02:04:19;16.30;;;9.90;;
51852;SDS011;37894;53.172;6.598;2024-02-14T02:06:45;16.15;;;10.38;;
51852;SDS011;37894;53.172;6.598;2024-02-14T02:09:11;14.95;;;9.45;;
51852;SDS011;37894;53.172;6.598;2024-02-14T02:14:32;16.83;;;10.05;;
51852;SDS011;37894;53.172;6.598;2024-02-14T02:16:59;14.73;;;9.80;;
51852;SDS011;37894;53.172;6.598;2024-02-14T02:19:25;14.35;;;9.57;;
51852;SDS011;37894;53.172;6.598;2024-02-14T02:21:51;15.05;;;9.30;;
51852;SDS011;37894;53.172;6.598;2024-02-14T02:24:17;14.88;;;9.57;;
51852;SDS011;37894;53.172;6.598;2024-02-14T02:26:43;15.98;;;9.30;;
51852;SDS011;37894;53.172;6.598;2024-02-14T02:29:09;14.18;;;8.82;;
51852;SDS011;37894;53.172;6.598;2024-02-14T02:31:35;15.38;;;9.90;;
51852;SDS011;37894;53.172;6.598;2024-02-14T02:34:01;13.30;;;8.50;;
51852;SDS011;37894;53.172;6.598;2024-02-14T02:36:27;13.60;;;8.35;;
51852;SDS011;37894;53.172;6.598;2024-02-14T02:38:55;14.50;;;9.05;;
51852;SDS011;37894;53.172;6.598;2024-02-14T02:41:23;15.25;;;8.93;;
51852;SDS011;37894;53.172;6.598;2024-02-14T02:43:49;13.73;;;8.95;;
51852;SDS011;37894;53.172;6.598;2024-02-14T02:46:15;13.57;;;8.27;;
51852;SDS011;37894;53.172;6.598;2024-02-14T02:48:41;14.63;;;8.88;;
51852;SDS011;37894;53.172;6.598;2024-02-14T02:51:07;13.95;;;8.73;;
51852;SDS011;37894;53.172;6.598;2024-02-14T02:53:33;14.05;;;8.38;;
51852;SDS011;37894;53.172;6.598;2024-02-14T02:56:00;13.40;;;8.68;;
51852;SDS011;37894;53.172;6.598;2024-02-14T02:58:25;15.60;;;8.88;;
51852;SDS011;37894;53.172;6.598;2024-02-14T03:00:51;13.57;;;8.32;;
51852;SDS011;37894;53.172;6.598;2024-02-14T03:03:20;13.63;;;8.15;;
51852;SDS011;37894;53.172;6.598;2024-02-14T03:05:47;15.05;;;8.52;;
51852;SDS011;37894;53.172;6.598;2024-02-14T03:08:12;13.05;;;7.97;;
51852;SDS011;37894;53.172;6.598;2024-02-14T03:10:40;12.32;;;7.75;;
51852;SDS011;37894;53.172;6.598;2024-02-14T03:13:06;13.05;;;8.15;;
51852;SDS011;37894;53.172;6.598;2024-02-14T03:15:37;14.25;;;8.00;;
51852;SDS011;37894;53.172;6.598;2024-02-14T03:18:03;14.57;;;8.10;;
51852;SDS011;37894;53.172;6.598;2024-02-14T03:20:33;12.77;;;7.68;;
51852;SDS011;37894;53.172;6.598;2024-02-14T03:22:59;12.57;;;7.93;;
51852;SDS011;37894;53.172;6.598;2024-02-14T03:25:24;12.35;;;7.57;;
51852;SDS011;37894;53.172;6.598;2024-02-14T03:27:51;12.70;;;7.60;;
51852;SDS011;37894;53.172;6.598;2024-02-14T03:30:21;13.07;;;7.43;;
51852;SDS011;37894;53.172;6.598;2024-02-14T03:32:47;12.50;;;8.43;;
51852;SDS011;37894;53.172;6.598;2024-02-14T03:35:14;13.73;;;7.60;;
51852;SDS011;37894;53.172;6.598;2024-02-14T03:37:40;12.43;;;7.32;;
51852;SDS011;37894;53.172;6.598;2024-02-14T03:40:07;13.25;;;7.47;;
51852;SDS011;37894;53.172;6.598;2024-02-14T03:42:34;12.68;;;7.25;;
51852;SDS011;37894;53.172;6.598;2024-02-14T03:45:00;11.43;;;7.15;;
51852;SDS011;37894;53.172;6.598;2024-02-14T03:47:31;10.93;;;7.07;;
51852;SDS011;37894;53.172;6.598;2024-02-14T03:49:57;12.77;;;7.28;;
51852;SDS011;37894;53.172;6.598;2024-02-14T03:52:24;11.23;;;6.78;;
51852;SDS011;37894;53.172;6.598;2024-02-14T03:54:50;10.90;;;6.13;;
51852;SDS011;37894;53.172;6.598;2024-02-14T03:57:16;9.50;;;5.85;;
51852;SDS011;37894;53.172;6.598;2024-02-14T03:59:46;11.05;;;5.60;;
51852;SDS011;37894;53.172;6.598;2024-02-14T04:02:11;9.75;;;5.47;;
51852;SDS011;37894;53.172;6.598;2024-02-14T04:04:38;10.38;;;5.25;;
51852;SDS011;37894;53.172;6.598;2024-02-14T04:07:08;9.05;;;5.32;;
51852;SDS011;37894;53.172;6.598;2024-02-14T04:09:34;9.30;;;5.22;;
51852;SDS011;37894;53.172;6.598;2024-02-14T04:11:59;9.85;;;5.35;;
51852;SDS011;37894;53.172;6.598;2024-02-14T04:14:25;8.90;;;5.30;;
51852;SDS011;37894;53.172;6.598;2024-02-14T04:16:51;9.50;;;4.68;;
51852;SDS011;37894;53.172;6.598;2024-02-14T04:19:17;11.68;;;5.72;;
51852;SDS011;37894;53.172;6.598;2024-02-14T04:21:43;10.88;;;5.65;;
51852;SDS011;37894;53.172;6.598;2024-02-14T04:24:09;10.30;;;5.97;;
51852;SDS011;37894;53.172;6.598;2024-02-14T04:26:35;11.50;;;6.28;;
51852;SDS011;37894;53.172;6.598;2024-02-14T04:29:01;13.40;;;7.00;;
51852;SDS011;37894;53.172;6.598;2024-02-14T04:31:27;13.40;;;6.90;;
51852;SDS011;37894;53.172;6.598;2024-02-14T04:33:55;11.57;;;5.90;;
51852;SDS011;37894;53.172;6.598;2024-02-14T04:36:21;17.13;;;7.80;;
51852;SDS011;37894;53.172;6.598;2024-02-14T04:38:49;16.15;;;8.23;;
51852;SDS011;37894;53.172;6.598;2024-02-14T04:41:16;14.80;;;7.72;;
51852;SDS011;37894;53.172;6.598;2024-02-14T04:43:42;14.90;;;7.78;;
51852;SDS011;37894;53.172;6.598;2024-02-14T04:46:08;16.98;;;9.05;;
51852;SDS011;37894;53.172;6.598;2024-02-14T04:48:34;15.27;;;8.60;;
51852;SDS011;37894;53.172;6.598;2024-02-14T04:51:00;16.17;;;8.43;;
51852;SDS011;37894;53.172;6.598;2024-02-14T04:53:27;18.58;;;9.27;;
51852;SDS011;37894;53.172;6.598;2024-02-14T04:55:53;18.60;;;8.75;;
51852;SDS011;37894;53.172;6.598;2024-02-14T04:58:19;18.30;;;8.80;;
51852;SDS011;37894;53.172;6.598;2024-02-14T05:00:45;17.10;;;8.38;;
51852;SDS011;37894;53.172;6.598;2024-02-14T05:03:12;18.33;;;9.20;;
51852;SDS011;37894;53.172;6.598;2024-02-14T05:05:37;20.55;;;9.48;;
51852;SDS011;37894;53.172;6.598;2024-02-14T05:08:03;20.60;;;9.50;;
51852;SDS011;37894;53.172;6.598;2024-02-14T05:10:29;17.20;;;9.10;;
51852;SDS011;37894;53.172;6.598;2024-02-14T05:12:56;18.08;;;9.32;;
51852;SDS011;37894;53.172;6.598;2024-02-14T05:15:22;20.40;;;9.35;;
51852;SDS011;37894;53.172;6.598;2024-02-14T05:17:48;17.48;;;8.88;;
51852;SDS011;37894;53.172;6.598;2024-02-14T05:20:15;20.48;;;9.40;;
51852;SDS011;37894;53.172;6.598;2024-02-14T05:22:41;18.25;;;9.25;;
51852;SDS011;37894;53.172;6.598;2024-02-14T05:25:07;16.92;;;8.50;;
51852;SDS011;37894;53.172;6.598;2024-02-14T05:27:34;17.33;;;8.43;;
51852;SDS011;37894;53.172;6.598;2024-02-14T05:30:00;19.55;;;9.10;;
51852;SDS011;37894;53.172;6.598;2024-02-14T05:32:33;17.38;;;8.25;;
51852;SDS011;37894;53.172;6.598;2024-02-14T05:34:59;16.75;;;7.82;;
51852;SDS011;37894;53.172;6.598;2024-02-14T05:37:25;15.38;;;8.52;;
51852;SDS011;37894;53.172;6.598;2024-02-14T05:39:54;16.48;;;8.70;;
51852;SDS011;37894;53.172;6.598;2024-02-14T05:42:20;18.67;;;8.60;;
51852;SDS011;37894;53.172;6.598;2024-02-14T05:44:46;17.33;;;8.75;;
51852;SDS011;37894;53.172;6.598;2024-02-14T05:47:12;15.68;;;8.43;;
51852;SDS011;37894;53.172;6.598;2024-02-14T05:49:39;18.25;;;8.40;;
51852;SDS011;37894;53.172;6.598;2024-02-14T05:52:05;16.83;;;8.10;;
51852;SDS011;37894;53.172;6.598;2024-02-14T05:54:32;17.02;;;7.65;;
51852;SDS011;37894;53.172;6.598;2024-02-14T05:56:58;15.70;;;8.35;;
51852;SDS011;37894;53.172;6.598;2024-02-14T05:59:23;13.50;;;6.82;;
51852;SDS011;37894;53.172;6.598;2024-02-14T06:01:50;12.98;;;6.65;;
51852;SDS011;37894;53.172;6.598;2024-02-14T06:04:15;11.75;;;6.10;;
51852;SDS011;37894;53.172;6.598;2024-02-14T06:06:41;13.10;;;6.43;;
51852;SDS011;37894;53.172;6.598;2024-02-14T06:09:07;11.05;;;5.95;;
51852;SDS011;37894;53.172;6.598;2024-02-14T06:11:36;12.45;;;5.90;;
51852;SDS011;37894;53.172;6.598;2024-02-14T06:14:07;14.18;;;6.47;;
51852;SDS011;37894;53.172;6.598;2024-02-14T06:16:33;15.80;;;6.10;;
51852;SDS011;37894;53.172;6.598;2024-02-14T06:19:00;12.85;;;5.40;;
51852;SDS011;37894;53.172;6.598;2024-02-14T06:21:26;16.52;;;6.30;;
51852;SDS011;37894;53.172;6.598;2024-02-14T06:23:52;13.88;;;6.30;;
51852;SDS011;37894;53.172;6.598;2024-02-14T06:26:18;9.55;;;4.85;;
51852;SDS011;37894;53.172;6.598;2024-02-14T06:28:44;15.20;;;6.30;;
51852;SDS011;37894;53.172;6.598;2024-02-14T06:31:10;19.55;;;7.78;;
51852;SDS011;37894;53.172;6.598;2024-02-14T06:33:37;19.00;;;7.57;;
51852;SDS011;37894;53.172;6.598;2024-02-14T06:36:03;32.17;;;9.27;;
51852;SDS011;37894;53.172;6.598;2024-02-14T06:38:29;30.80;;;9.15;;
51852;SDS011;37894;53.172;6.598;2024-02-14T06:40:56;29.50;;;9.93;;
51852;SDS011;37894;53.172;6.598;2024-02-14T06:43:22;36.35;;;10.07;;
51852;SDS011;37894;53.172;6.598;2024-02-14T06:45:48;31.35;;;10.35;;
51852;SDS011;37894;53.172;6.598;2024-02-14T06:48:14;41.05;;;10.40;;
51852;SDS011;37894;53.172;6.598;2024-02-14T06:50:40;32.33;;;10.40;;
51852;SDS011;37894;53.172;6.598;2024-02-14T06:53:06;38.97;;;9.73;;
51852;SDS011;37894;53.172;6.598;2024-02-14T06:55:32;34.60;;;9.60;;
51852;SDS011;37894;53.172;6.598;2024-02-14T06:57:58;27.17;;;8.85;;
51852;SDS011;37894;53.172;6.598;2024-02-14T07:00:24;31.67;;;9.27;;
51852;SDS011;37894;53.172;6.598;2024-02-14T07:02:50;29.80;;;9.55;;
51852;SDS011;37894;53.172;6.598;2024-02-14T07:05:17;24.30;;;8.23;;
51852;SDS011;37894;53.172;6.598;2024-02-14T07:07:42;35.88;;;9.35;;
51852;SDS011;37894;53.172;6.598;2024-02-14T07:10:08;36.80;;;9.70;;
51852;SDS011;37894;53.172;6.598;2024-02-14T07:12:34;36.15;;;9.23;;
51852;SDS011;37894;53.172;6.598;2024-02-14T07:15:03;35.85;;;9.80;;
51852;SDS011;37894;53.172;6.598;2024-02-14T07:17:30;37.35;;;9.07;;
51852;SDS011;37894;53.172;6.598;2024-02-14T07:19:55;38.17;;;9.18;;
51852;SDS011;37894;53.172;6.598;2024-02-14T07:22:21;42.92;;;10.10;;
51852;SDS011;37894;53.172;6.598;2024-02-14T07:24:47;32.53;;;10.23;;
51852;SDS011;37894;53.172;6.598;2024-02-14T07:27:14;39.85;;;10.35;;
51852;SDS011;37894;53.172;6.598;2024-02-14T07:29:40;47.08;;;11.63;;
51852;SDS011;37894;53.172;6.598;2024-02-14T07:32:06;49.67;;;9.90;;
51852;SDS011;37894;53.172;6.598;2024-02-14T07:34:32;44.08;;;10.15;;
51852;SDS011;37894;53.172;6.598;2024-02-14T07:36:58;44.25;;;10.93;;
51852;SDS011;37894;53.172;6.598;2024-02-14T07:39:24;37.65;;;8.68;;
51852;SDS011;37894;53.172;6.598;2024-02-14T07:41:50;42.05;;;10.13;;
51852;SDS011;37894;53.172;6.598;2024-02-14T07:44:16;47.67;;;8.75;;
51852;SDS011;37894;53.172;6.598;2024-02-14T07:46:42;36.83;;;9.20;;
51852;SDS011;37894;53.172;6.598;2024-02-14T07:49:08;47.13;;;8.65;;
51852;SDS011;37894;53.172;6.598;2024-02-14T07:51:35;50.65;;;9.95;;
51852;SDS011;37894;53.172;6.598;2024-02-14T07:54:06;51.22;;;10.07;;
51852;SDS011;37894;53.172;6.598;2024-02-14T07:56:31;47.50;;;8.45;;
51852;SDS011;37894;53.172;6.598;2024-02-14T07:58:57;48.50;;;9.52;;
51852;SDS011;37894;53.172;6.598;2024-02-14T08:01:25;39.25;;;8.60;;
51852;SDS011;37894;53.172;6.598;2024-02-14T08:03:50;38.47;;;8.57;;
51852;SDS011;37894;53.172;6.598;2024-02-14T08:06:17;47.53;;;10.10;;
51852;SDS011;37894;53.172;6.598;2024-02-14T08:08:42;51.90;;;10.20;;
51852;SDS011;37894;53.172;6.598;2024-02-14T08:11:11;47.83;;;8.98;;
51852;SDS011;37894;53.172;6.598;2024-02-14T08:13:36;47.45;;;9.45;;
51852;SDS011;37894;53.172;6.598;2024-02-14T08:16:05;32.53;;;9.23;;
51852;SDS011;37894;53.172;6.598;2024-02-14T08:18:31;47.53;;;10.52;;
51852;SDS011;37894;53.172;6.598;2024-02-14T08:20:57;42.80;;;10.80;;
51852;SDS011;37894;53.172;6.598;2024-02-14T08:23:23;45.03;;;10.40;;
51852;SDS011;37894;53.172;6.598;2024-02-14T08:25:49;51.20;;;10.68;;
51852;SDS011;37894;53.172;6.598;2024-02-14T08:28:15;35.85;;;9.32;;
51852;SDS011;37894;53.172;6.598;2024-02-14T08:30:43;36.75;;;10.57;;
51852;SDS011;37894;53.172;6.598;2024-02-14T08:33:09;49.40;;;11.02;;
51852;SDS011;37894;53.172;6.598;2024-02-14T08:35:36;51.47;;;11.27;;
51852;SDS011;37894;53.172;6.598;2024-02-14T08:38:01;48.25;;;12.18;;
51852;SDS011;37894;53.172;6.598;2024-02-14T08:40:27;56.20;;;12.50;;
51852;SDS011;37894;53.172;6.598;2024-02-14T08:42:53;49.88;;;11.23;;
51852;SDS011;37894;53.172;6.598;2024-02-14T08:45:19;39.55;;;10.77;;
51852;SDS011;37894;53.172;6.598;2024-02-14T08:47:45;42.92;;;12.55;;
51852;SDS011;37894;53.172;6.598;2024-02-14T08:50:11;44.60;;;12.07;;
51852;SDS011;37894;53.172;6.598;2024-02-14T08:52:36;43.05;;;12.38;;
51852;SDS011;37894;53.172;6.598;2024-02-14T08:55:03;43.45;;;11.90;;
51852;SDS011;37894;53.172;6.598;2024-02-14T08:57:31;40.28;;;11.38;;
51852;SDS011;37894;53.172;6.598;2024-02-14T08:59:56;35.20;;;10.98;;
51852;SDS011;37894;53.172;6.598;2024-02-14T09:02:22;36.15;;;12.55;;
51852;SDS011;37894;53.172;6.598;2024-02-14T09:04:50;35.85;;;12.43;;
51852;SDS011;37894;53.172;6.598;2024-02-14T09:07:16;34.22;;;13.15;;
51852;SDS011;37894;53.172;6.598;2024-02-14T09:09:41;34.95;;;12.75;;
51852;SDS011;37894;53.172;6.598;2024-02-14T09:12:07;32.42;;;12.55;;
51852;SDS011;37894;53.172;6.598;2024-02-14T09:14:33;33.90;;;12.57;;
51852;SDS011;37894;53.172;6.598;2024-02-14T09:16:59;35.03;;;13.32;;
51852;SDS011;37894;53.172;6.598;2024-02-14T09:19:25;35.10;;;13.10;;
51852;SDS011;37894;53.172;6.598;2024-02-14T09:21:52;37.03;;;13.23;;
51852;SDS011;37894;53.172;6.598;2024-02-14T09:24:18;30.52;;;12.98;;
51852;SDS011;37894;53.172;6.598;2024-02-14T09:26:44;34.38;;;13.75;;
51852;SDS011;37894;53.172;6.598;2024-02-14T09:29:09;35.53;;;13.30;;
51852;SDS011;37894;53.172;6.598;2024-02-14T09:31:36;29.40;;;13.15;;
51852;SDS011;37894;53.172;6.598;2024-02-14T09:34:02;31.75;;;12.75;;
51852;SDS011;37894;53.172;6.598;2024-02-14T09:36:28;35.63;;;13.10;;
51852;SDS011;37894;53.172;6.598;2024-02-14T09:38:54;34.72;;;12.13;;
51852;SDS011;37894;53.172;6.598;2024-02-14T09:43:52;32.53;;;12.00;;
51852;SDS011;37894;53.172;6.598;2024-02-14T09:46:18;37.72;;;12.05;;
51852;SDS011;37894;53.172;6.598;2024-02-14T09:48:44;33.35;;;11.00;;
51852;SDS011;37894;53.172;6.598;2024-02-14T09:51:13;32.95;;;12.15;;
51852;SDS011;37894;53.172;6.598;2024-02-14T09:53:39;32.22;;;11.02;;
51852;SDS011;37894;53.172;6.598;2024-02-14T09:56:05;24.02;;;11.05;;
51852;SDS011;37894;53.172;6.598;2024-02-14T09:58:33;28.25;;;11.00;;
51852;SDS011;37894;53.172;6.598;2024-02-14T10:01:00;33.47;;;10.02;;
51852;SDS011;37894;53.172;6.598;2024-02-14T10:03:26;30.08;;;10.45;;
51852;SDS011;37894;53.172;6.598;2024-02-14T10:05:52;26.45;;;9.95;;
51852;SDS011;37894;53.172;6.598;2024-02-14T10:08:18;29.58;;;9.73;;
51852;SDS011;37894;53.172;6.598;2024-02-14T10:10:45;28.05;;;9.05;;
51852;SDS011;37894;53.172;6.598;2024-02-14T10:13:11;25.67;;;9.77;;
51852;SDS011;37894;53.172;6.598;2024-02-14T10:15:37;25.25;;;9.18;;
51852;SDS011;37894;53.172;6.598;2024-02-14T10:18:04;28.27;;;10.98;;
51852;SDS011;37894;53.172;6.598;2024-02-14T10:20:30;23.90;;;8.65;;
51852;SDS011;37894;53.172;6.598;2024-02-14T10:23:00;23.88;;;9.82;;
51852;SDS011;37894;53.172;6.598;2024-02-14T10:25:30;27.70;;;10.25;;
51852;SDS011;37894;53.172;6.598;2024-02-14T10:27:56;31.50;;;10.88;;
51852;SDS011;37894;53.172;6.598;2024-02-14T10:30:23;30.67;;;9.95;;
51852;SDS011;37894;53.172;6.598;2024-02-14T10:32:48;32.92;;;11.90;;
51852;SDS011;37894;53.172;6.598;2024-02-14T10:35:14;34.78;;;10.75;;
51852;SDS011;37894;53.172;6.598;2024-02-14T10:37:41;26.02;;;10.48;;
51852;SDS011;37894;53.172;6.598;2024-02-14T10:40:07;28.60;;;10.07;;
51852;SDS011;37894;53.172;6.598;2024-02-14T10:42:34;26.27;;;9.52;;
51852;SDS011;37894;53.172;6.598;2024-02-14T10:45:03;21.95;;;8.25;;
51852;SDS011;37894;53.172;6.598;2024-02-14T10:47:31;18.98;;;8.43;;
51852;SDS011;37894;53.172;6.598;2024-02-14T10:50:01;21.90;;;8.13;;
51852;SDS011;37894;53.172;6.598;2024-02-14T10:52:36;18.75;;;8.05;;
51852;SDS011;37894;53.172;6.598;2024-02-14T10:55:05;10.32;;;5.93;;
51852;SDS011;37894;53.172;6.598;2024-02-14T10:57:31;15.80;;;6.30;;
51852;SDS011;37894;53.172;6.598;2024-02-14T11:00:02;12.55;;;5.60;;
51852;SDS011;37894;53.172;6.598;2024-02-14T11:02:31;11.02;;;5.30;;
51852;SDS011;37894;53.172;6.598;2024-02-14T11:04:58;14.25;;;6.28;;
51852;SDS011;37894;53.172;6.598;2024-02-14T11:07:27;17.00;;;6.10;;
51852;SDS011;37894;53.172;6.598;2024-02-14T11:10:00;11.77;;;5.60;;
51852;SDS011;37894;53.172;6.598;2024-02-14T11:12:33;13.05;;;7.07;;
51852;SDS011;37894;53.172;6.598;2024-02-14T11:15:01;17.13;;;7.75;;
51852;SDS011;37894;53.172;6.598;2024-02-14T11:17:31;16.63;;;7.70;;
51852;SDS011;37894;53.172;6.598;2024-02-14T11:19:57;16.23;;;8.30;;
51852;SDS011;37894;53.172;6.598;2024-02-14T11:22:23;16.73;;;8.95;;
51852;SDS011;37894;53.172;6.598;2024-02-14T11:24:51;17.65;;;9.18;;
51852;SDS011;37894;53.172;6.598;2024-02-14T11:27:18;16.50;;;9.07;;
51852;SDS011;37894;53.172;6.598;2024-02-14T11:29:53;20.70;;;9.18;;
51852;SDS011;37894;53.172;6.598;2024-02-14T11:34:56;16.30;;;8.10;;
51852;SDS011;37894;53.172;6.598;2024-02-14T11:37:27;13.80;;;7.85;;
51852;SDS011;37894;53.172;6.598;2024-02-14T11:39:54;14.77;;;8.23;;
51852;SDS011;37894;53.172;6.598;2024-02-14T11:42:22;15.38;;;7.78;;
51852;SDS011;37894;53.172;6.598;2024-02-14T11:44:48;12.73;;;6.70;;
51852;SDS011;37894;53.172;6.598;2024-02-14T11:47:14;14.10;;;7.18;;
51852;SDS011;37894;53.172;6.598;2024-02-14T11:49:40;12.68;;;7.03;;
51852;SDS011;37894;53.172;6.598;2024-02-14T11:52:09;11.48;;;6.30;;
51852;SDS011;37894;53.172;6.598;2024-02-14T11:54:36;9.70;;;5.85;;
51852;SDS011;37894;53.172;6.598;2024-02-14T11:57:03;9.82;;;5.55;;
51852;SDS011;37894;53.172;6.598;2024-02-14T11:59:29;8.98;;;5.50;;
51852;SDS011;37894;53.172;6.598;2024-02-14T12:01:55;10.55;;;5.65;;
51852;SDS011;37894;53.172;6.598;2024-02-14T12:04:23;10.60;;;5.43;;
51852;SDS011;37894;53.172;6.598;2024-02-14T12:06:49;8.57;;;5.20;;
51852;SDS011;37894;53.172;6.598;2024-02-14T12:09:15;8.80;;;4.90;;
51852;SDS011;37894;53.172;6.598;2024-02-14T12:11:41;9.73;;;5.05;;
51852;SDS011;37894;53.172;6.598;2024-02-14T12:14:09;9.55;;;4.95;;
51852;SDS011;37894;53.172;6.598;2024-02-14T12:16:38;9.23;;;5.00;;
51852;SDS011;37894;53.172;6.598;2024-02-14T12:19:09;8.40;;;5.28;;
51852;SDS011;37894;53.172;6.598;2024-02-14T12:21:40;8.50;;;4.95;;
51852;SDS011;37894;53.172;6.598;2024-02-14T12:24:12;9.48;;;5.82;;
51852;SDS011;37894;53.172;6.598;2024-02-14T12:26:39;8.77;;;5.30;;
51852;SDS011;37894;53.172;6.598;2024-02-14T12:29:06;8.60;;;5.20;;
51852;SDS011;37894;53.172;6.598;2024-02-14T12:31:34;8.73;;;5.75;;
51852;SDS011;37894;53.172;6.598;2024-02-14T12:34:00;9.88;;;6.63;;
51852;SDS011;37894;53.172;6.598;2024-02-14T12:36:34;11.75;;;7.70;;
51852;SDS011;37894;53.172;6.598;2024-02-14T12:39:00;11.90;;;7.47;;
51852;SDS011;37894;53.172;6.598;2024-02-14T12:41:27;11.85;;;7.43;;
51852;SDS011;37894;53.172;6.598;2024-02-14T12:43:57;13.27;;;8.95;;
51852;SDS011;37894;53.172;6.598;2024-02-14T12:46:24;12.52;;;9.18;;
51852;SDS011;37894;53.172;6.598;2024-02-14T12:48:50;13.98;;;8.02;;
51852;SDS011;37894;53.172;6.598;2024-02-14T12:51:16;12.77;;;7.90;;
51852;SDS011;37894;53.172;6.598;2024-02-14T12:53:42;17.45;;;9.32;;
51852;SDS011;37894;53.172;6.598;2024-02-14T12:56:08;11.88;;;8.52;;
51852;SDS011;37894;53.172;6.598;2024-02-14T12:58:34;11.38;;;8.10;;
51852;SDS011;37894;53.172;6.598;2024-02-14T13:01:00;11.90;;;8.18;;
51852;SDS011;37894;53.172;6.598;2024-02-14T13:03:26;13.55;;;8.35;;
51852;SDS011;37894;53.172;6.598;2024-02-14T13:05:55;10.20;;;7.63;;
51852;SDS011;37894;53.172;6.598;2024-02-14T13:08:21;11.30;;;7.35;;
51852;SDS011;37894;53.172;6.598;2024-02-14T13:10:48;10.88;;;7.22;;
51852;SDS011;37894;53.172;6.598;2024-02-14T13:13:15;10.65;;;7.15;;
51852;SDS011;37894;53.172;6.598;2024-02-14T13:15:41;10.68;;;7.18;;
51852;SDS011;37894;53.172;6.598;2024-02-14T13:18:09;12.00;;;7.38;;
51852;SDS011;37894;53.172;6.598;2024-02-14T13:20:35;10.90;;;7.20;;
51852;SDS011;37894;53.172;6.598;2024-02-14T13:23:02;10.18;;;6.90;;
51852;SDS011;37894;53.172;6.598;2024-02-14T13:25:28;10.18;;;6.85;;
51852;SDS011;37894;53.172;6.598;2024-02-14T13:27:54;9.65;;;6.30;;
51852;SDS011;37894;53.172;6.598;2024-02-14T13:30:21;11.38;;;7.55;;
51852;SDS011;37894;53.172;6.598;2024-02-14T13:32:48;10.68;;;7.35;;
51852;SDS011;37894;53.172;6.598;2024-02-14T13:35:13;12.30;;;7.43;;
51852;SDS011;37894;53.172;6.598;2024-02-14T13:37:40;11.45;;;7.22;;
51852;SDS011;37894;53.172;6.598;2024-02-14T13:40:06;12.18;;;7.40;;
51852;SDS011;37894;53.172;6.598;2024-02-14T13:42:38;12.18;;;6.82;;
51852;SDS011;37894;53.172;6.598;2024-02-14T13:45:04;11.25;;;7.20;;
51852;SDS011;37894;53.172;6.598;2024-02-14T13:47:41;12.38;;;7.85;;
51852;SDS011;37894;53.172;6.598;2024-02-14T13:50:08;12.02;;;7.70;;
51852;SDS011;37894;53.172;6.598;2024-02-14T13:52:35;18.42;;;9.35;;
51852;SDS011;37894;53.172;6.598;2024-02-14T13:55:04;16.90;;;9.40;;
51852;SDS011;37894;53.172;6.598;2024-02-14T13:57:38;15.25;;;9.27;;
51852;SDS011;37894;53.172;6.598;2024-02-14T14:00:08;17.60;;;10.32;;
51852;SDS011;37894;53.172;6.598;2024-02-14T14:02:34;17.67;;;10.15;;
51852;SDS011;37894;53.172;6.598;2024-02-14T14:05:06;17.70;;;10.75;;
51852;SDS011;37894;53.172;6.598;2024-02-14T14:07:34;16.92;;;10.25;;
51852;SDS011;37894;53.172;6.598;2024-02-14T14:10:01;18.90;;;10.27;;
51852;SDS011;37894;53.172;6.598;2024-02-14T14:12:28;16.08;;;9.75;;
51852;SDS011;37894;53.172;6.598;2024-02-14T14:14:54;14.13;;;9.65;;
51852;SDS011;37894;53.172;6.598;2024-02-14T14:17:20;16.50;;;9.80;;
51852;SDS011;37894;53.172;6.598;2024-02-14T14:19:46;17.10;;;10.15;;
51852;SDS011;37894;53.172;6.598;2024-02-14T14:22:12;17.77;;;9.80;;
51852;SDS011;37894;53.172;6.598;2024-02-14T14:24:39;20.98;;;10.98;;
51852;SDS011;37894;53.172;6.598;2024-02-14T14:27:05;18.27;;;10.98;;
51852;SDS011;37894;53.172;6.598;2024-02-14T14:29:34;19.52;;;12.00;;
51852;SDS011;37894;53.172;6.598;2024-02-14T14:32:01;19.83;;;11.93;;
51852;SDS011;37894;53.172;6.598;2024-02-14T14:34:27;19.33;;;12.55;;
51852;SDS011;37894;53.172;6.598;2024-02-14T14:36:55;23.00;;;13.07;;